createdAt,value
2017-01-15T00:00:45.665Z,0
2017-01-15T00:01:45.722Z,0
2017-01-15T00:02:45.778Z,0
2017-01-15T00:03:45.821Z,0
2017-01-15T00:04:45.875Z,0
2017-01-15T00:05:45.933Z,0
2017-01-15T00:06:46.007Z,0
2017-01-15T00:07:46.052Z,0
2017-01-15T00:08:46.110Z,0
2017-01-15T00:09:46.186Z,0
2017-01-15T00:10:46.219Z,0
2017-01-15T00:11:46.279Z,0
2017-01-15T00:12:46.334Z,0
2017-01-15T00:13:46.396Z,0
2017-01-15T00:14:46.452Z,0
2017-01-15T00:15:46.502Z,0
2017-01-15T00:16:46.556Z,0
2017-01-15T00:17:46.608Z,0
2017-01-15T00:18:46.665Z,0
2017-01-15T00:19:46.735Z,0
2017-01-15T00:20:46.778Z,0
2017-01-15T00:21:46.833Z,0
2017-01-15T00:22:46.893Z,0
2017-01-15T00:23:46.949Z,0
2017-01-15T00:24:47.007Z,0
2017-01-15T00:25:47.075Z,0
2017-01-15T00:26:47.130Z,0
2017-01-15T00:27:47.184Z,0
2017-01-15T00:28:47.232Z,0
2017-01-15T00:29:47.281Z,0
2017-01-15T00:30:47.351Z,0
2017-01-15T00:31:47.404Z,0
2017-01-15T00:32:47.460Z,0
2017-01-15T00:33:47.513Z,0
2017-01-15T00:34:47.575Z,0
2017-01-15T00:35:47.643Z,0
2017-01-15T00:36:47.693Z,0
2017-01-15T00:37:47.750Z,0
2017-01-15T00:38:47.807Z,0
2017-01-15T00:39:47.855Z,0
2017-01-15T00:40:47.911Z,0
2017-01-15T00:41:47.977Z,0
2017-01-15T00:42:48.021Z,0
2017-01-15T00:43:48.080Z,0
2017-01-15T00:44:48.140Z,0
2017-01-15T00:45:48.204Z,0
2017-01-15T00:46:48.252Z,0
2017-01-15T00:47:48.326Z,0
2017-01-15T00:48:48.369Z,0
2017-01-15T00:49:48.434Z,0
2017-01-15T00:50:48.477Z,0
2017-01-15T00:51:48.540Z,0
2017-01-15T00:52:48.604Z,0
2017-01-15T00:53:48.653Z,0
2017-01-15T00:54:48.713Z,0
2017-01-15T00:55:48.773Z,0
2017-01-15T00:56:48.821Z,0
2017-01-15T00:57:48.882Z,0
2017-01-15T00:58:48.927Z,0
2017-01-15T00:59:48.994Z,0
2017-01-15T01:00:49.045Z,0
2017-01-15T01:01:49.488Z,0
2017-01-15T01:02:49.172Z,0
2017-01-15T01:03:49.230Z,0
2017-01-15T01:04:49.270Z,0
2017-01-15T01:05:49.337Z,0
2017-01-15T01:06:49.392Z,0
2017-01-15T01:07:49.443Z,0
2017-01-15T01:08:49.499Z,0
2017-01-15T01:09:49.594Z,0
2017-01-15T01:10:49.618Z,0
2017-01-15T01:11:49.679Z,0
2017-01-15T01:12:49.730Z,0
2017-01-15T01:13:49.788Z,0
2017-01-15T01:14:49.856Z,0
2017-01-15T01:15:49.911Z,0
2017-01-15T01:16:49.954Z,0
2017-01-15T01:17:50.015Z,0
2017-01-15T01:18:50.075Z,0
2017-01-15T01:19:50.137Z,0
2017-01-15T01:20:50.180Z,0
2017-01-15T01:21:50.238Z,0
2017-01-15T01:22:50.307Z,0
2017-01-15T01:23:50.368Z,0
2017-01-15T01:24:50.416Z,0
2017-01-15T01:25:50.481Z,0
2017-01-15T01:26:50.527Z,0
2017-01-15T01:27:50.604Z,0
2017-01-15T01:28:50.635Z,0
2017-01-15T01:29:50.703Z,0
2017-01-15T01:30:50.746Z,0
2017-01-15T01:31:50.822Z,0
2017-01-15T01:32:50.869Z,0
2017-01-15T01:33:50.916Z,0
2017-01-15T01:34:50.983Z,0
2017-01-15T01:35:51.036Z,0
2017-01-15T01:36:51.090Z,0
2017-01-15T01:37:51.151Z,0
2017-01-15T01:38:51.207Z,0
2017-01-15T01:39:51.269Z,0
2017-01-15T01:40:51.330Z,0
2017-01-15T01:41:51.394Z,0
2017-01-15T01:42:51.444Z,0
2017-01-15T01:43:51.487Z,0
2017-01-15T01:44:51.548Z,0
2017-01-15T01:45:51.606Z,0
2017-01-15T01:46:51.673Z,0
2017-01-15T01:47:51.730Z,0
2017-01-15T01:48:51.781Z,0
2017-01-15T01:49:51.835Z,0
2017-01-15T01:50:51.893Z,0
2017-01-15T01:51:51.955Z,0
2017-01-15T01:52:52.004Z,0
2017-01-15T01:53:52.092Z,0
2017-01-15T01:54:52.118Z,0
2017-01-15T01:55:52.176Z,0
2017-01-15T01:56:52.231Z,0
2017-01-15T01:57:52.287Z,0
2017-01-15T01:58:52.336Z,0
2017-01-15T01:59:52.396Z,0
2017-01-15T02:00:52.448Z,0
2017-01-15T02:01:52.515Z,0
2017-01-15T02:02:52.572Z,0
2017-01-15T02:03:52.618Z,0
2017-01-15T02:04:52.684Z,0
2017-01-15T02:05:52.742Z,0
2017-01-15T02:06:52.831Z,0
2017-01-15T02:07:52.854Z,0
2017-01-15T02:08:52.907Z,0
2017-01-15T02:09:52.967Z,0
2017-01-15T02:10:53.023Z,0
2017-01-15T02:11:53.075Z,0
2017-01-15T02:12:53.141Z,0
2017-01-15T02:13:53.196Z,0
2017-01-15T02:14:53.255Z,0
2017-01-15T02:15:53.316Z,0
2017-01-15T02:16:53.372Z,0
2017-01-15T02:17:53.424Z,0
2017-01-15T02:18:53.474Z,0
2017-01-15T02:19:53.529Z,0
2017-01-15T02:20:53.589Z,0
2017-01-15T02:21:53.652Z,0
2017-01-15T02:22:53.702Z,0
2017-01-15T02:23:53.772Z,0
2017-01-15T02:24:53.857Z,0
2017-01-15T02:25:53.895Z,0
2017-01-15T02:26:53.951Z,0
2017-01-15T02:27:53.988Z,0
2017-01-15T02:28:54.039Z,0
2017-01-15T02:29:54.094Z,0
2017-01-15T02:30:54.159Z,0
2017-01-15T02:31:54.221Z,0
2017-01-15T02:32:54.285Z,0
2017-01-15T02:33:54.332Z,0
2017-01-15T02:34:54.391Z,0
2017-01-15T02:35:54.444Z,0
2017-01-15T02:36:54.506Z,0
2017-01-15T02:37:54.567Z,0
2017-01-15T02:38:54.610Z,0
2017-01-15T02:39:54.666Z,0
2017-01-15T02:40:54.730Z,0
2017-01-15T02:41:54.783Z,0
2017-01-15T02:42:54.848Z,0
2017-01-15T02:43:54.889Z,0
2017-01-15T02:44:54.947Z,0
2017-01-15T02:45:55.019Z,0
2017-01-15T02:46:55.072Z,0
2017-01-15T02:47:55.227Z,0
2017-01-15T02:48:55.189Z,0
2017-01-15T02:49:55.244Z,0
2017-01-15T02:50:55.320Z,0
2017-01-15T02:51:55.505Z,0
2017-01-15T02:52:55.711Z,0
2017-01-15T02:53:55.469Z,0
2017-01-15T02:54:55.528Z,0
2017-01-15T02:55:55.595Z,0
2017-01-15T02:56:55.646Z,0
2017-01-15T02:57:55.701Z,0
2017-01-15T02:58:55.753Z,0
2017-01-15T02:59:55.819Z,0
2017-01-15T03:00:55.869Z,0
2017-01-15T03:01:55.943Z,0
2017-01-15T03:02:55.975Z,0
2017-01-15T03:03:56.038Z,0
2017-01-15T03:04:56.097Z,0
2017-01-15T03:05:56.151Z,0
2017-01-15T03:06:56.216Z,0
2017-01-15T03:07:56.265Z,0
2017-01-15T03:08:56.327Z,0
2017-01-15T03:09:56.372Z,0
2017-01-15T03:10:56.442Z,0
2017-01-15T03:11:56.498Z,0
2017-01-15T03:12:56.545Z,0
2017-01-15T03:13:56.607Z,0
2017-01-15T03:14:56.670Z,0
2017-01-15T03:15:56.719Z,0
2017-01-15T03:16:56.770Z,0
2017-01-15T03:17:56.838Z,0
2017-01-15T03:18:56.893Z,0
2017-01-15T03:19:56.952Z,0
2017-01-15T03:20:57.008Z,0
2017-01-15T03:21:57.059Z,0
2017-01-15T03:22:57.124Z,0
2017-01-15T03:23:57.185Z,0
2017-01-15T03:24:57.229Z,0
2017-01-15T03:25:57.296Z,0
2017-01-15T03:26:57.357Z,0
2017-01-15T03:27:57.394Z,0
2017-01-15T03:28:57.463Z,0
2017-01-15T03:29:57.520Z,0
2017-01-15T03:30:57.578Z,0
2017-01-15T03:31:57.627Z,0
2017-01-15T03:32:57.691Z,0
2017-01-15T03:33:57.743Z,0
2017-01-15T03:34:57.805Z,0
2017-01-15T03:35:57.855Z,0
2017-01-15T03:36:57.921Z,0
2017-01-15T03:37:57.978Z,0
2017-01-15T03:38:58.037Z,0
2017-01-15T03:39:58.090Z,0
2017-01-15T03:40:58.141Z,0
2017-01-15T03:41:58.197Z,0
2017-01-15T03:42:58.254Z,0
2017-01-15T03:43:58.324Z,0
2017-01-15T03:44:58.365Z,0
2017-01-15T03:45:58.426Z,0
2017-01-15T03:46:58.485Z,0
2017-01-15T03:47:58.537Z,0
2017-01-15T03:48:58.594Z,0
2017-01-15T03:49:58.650Z,0
2017-01-15T03:50:58.713Z,0
2017-01-15T03:51:58.768Z,0
2017-01-15T03:52:58.825Z,0
2017-01-15T03:53:58.867Z,0
2017-01-15T03:54:58.935Z,0
2017-01-15T03:55:58.991Z,0
2017-01-15T03:56:59.046Z,0
2017-01-15T03:57:59.099Z,0
2017-01-15T03:58:59.155Z,0
2017-01-15T03:59:59.217Z,0
2017-01-15T04:00:59.268Z,0
2017-01-15T04:01:59.335Z,0
2017-01-15T04:02:59.391Z,0
2017-01-15T04:03:59.445Z,0
2017-01-15T04:04:59.494Z,0
2017-01-15T04:05:59.550Z,0
2017-01-15T04:06:59.600Z,0
2017-01-15T04:07:59.668Z,0
2017-01-15T04:08:59.723Z,0
2017-01-15T04:09:59.777Z,0
2017-01-15T04:10:59.834Z,0
2017-01-15T04:11:59.884Z,0
2017-01-15T04:12:59.983Z,0
2017-01-15T04:14:00.010Z,0
2017-01-15T04:15:00.069Z,0
2017-01-15T04:16:00.112Z,0
2017-01-15T04:17:00.171Z,0
2017-01-15T04:18:00.231Z,0
2017-01-15T04:19:00.279Z,0
2017-01-15T04:20:00.341Z,0
2017-01-15T04:21:00.388Z,0
2017-01-15T04:22:00.453Z,0
2017-01-15T04:23:00.494Z,0
2017-01-15T04:24:00.552Z,0
2017-01-15T04:25:00.616Z,0
2017-01-15T04:26:00.672Z,0
2017-01-15T04:27:00.732Z,0
2017-01-15T04:28:00.781Z,0
2017-01-15T04:29:00.841Z,0
2017-01-15T04:30:00.895Z,0
2017-01-15T04:31:00.959Z,0
2017-01-15T04:32:01.003Z,0
2017-01-15T04:33:01.074Z,0
2017-01-15T04:34:01.113Z,0
2017-01-15T04:35:01.177Z,0
2017-01-15T04:36:01.239Z,0
2017-01-15T04:37:01.285Z,0
2017-01-15T04:38:01.352Z,0
2017-01-15T04:39:01.408Z,0
2017-01-15T04:40:01.471Z,0
2017-01-15T04:41:01.518Z,0
2017-01-15T04:42:01.576Z,0
2017-01-15T04:43:01.641Z,0
2017-01-15T04:44:01.696Z,0
2017-01-15T04:45:01.743Z,0
2017-01-15T04:46:01.802Z,0
2017-01-15T04:47:01.852Z,0
2017-01-15T04:48:01.922Z,0
2017-01-15T04:49:01.979Z,0
2017-01-15T04:50:02.028Z,0
2017-01-15T04:51:02.092Z,0
2017-01-15T04:52:02.148Z,0
2017-01-15T04:53:02.210Z,0
2017-01-15T04:54:02.246Z,0
2017-01-15T04:55:02.311Z,0
2017-01-15T04:56:02.367Z,0
2017-01-15T04:57:02.434Z,0
2017-01-15T04:58:02.478Z,0
2017-01-15T04:59:02.534Z,0
2017-01-15T05:00:02.604Z,0
2017-01-15T05:01:02.653Z,0
2017-01-15T05:02:02.710Z,0
2017-01-15T05:03:02.771Z,0
2017-01-15T05:04:02.823Z,0
2017-01-15T05:05:02.881Z,0
2017-01-15T05:06:03.313Z,0
2017-01-15T05:07:03.001Z,0
2017-01-15T05:08:03.051Z,0
2017-01-15T05:09:03.100Z,0
2017-01-15T05:10:03.165Z,0
2017-01-15T05:11:03.219Z,0
2017-01-15T05:12:03.310Z,0
2017-01-15T05:13:03.344Z,0
2017-01-15T05:14:03.396Z,0
2017-01-15T05:15:03.454Z,0
2017-01-15T05:16:03.504Z,0
2017-01-15T05:17:03.563Z,0
2017-01-15T05:18:03.631Z,0
2017-01-15T05:19:03.675Z,0
2017-01-15T05:20:03.738Z,0
2017-01-15T05:21:03.782Z,0
2017-01-15T05:22:03.844Z,0
2017-01-15T05:23:03.901Z,0
2017-01-15T05:24:03.966Z,0
2017-01-15T05:25:04.014Z,0
2017-01-15T05:26:04.083Z,0
2017-01-15T05:27:04.137Z,0
2017-01-15T05:28:04.187Z,0
2017-01-15T05:29:04.236Z,0
2017-01-15T05:30:04.301Z,0
2017-01-15T05:31:04.364Z,0
2017-01-15T05:32:04.420Z,0
2017-01-15T05:33:04.472Z,0
2017-01-15T05:34:04.527Z,0
2017-01-15T05:35:04.583Z,0
2017-01-15T05:36:04.643Z,0
2017-01-15T05:37:04.687Z,0
2017-01-15T05:38:04.754Z,0
2017-01-15T05:39:04.813Z,0
2017-01-15T05:40:04.870Z,0
2017-01-15T05:41:04.933Z,0
2017-01-15T05:42:04.983Z,0
2017-01-15T05:43:05.036Z,0
2017-01-15T05:44:05.097Z,0
2017-01-15T05:45:05.150Z,0
2017-01-15T05:46:05.208Z,0
2017-01-15T05:47:05.268Z,0
2017-01-15T05:48:05.321Z,0
2017-01-15T05:49:05.377Z,0
2017-01-15T05:50:05.440Z,0
2017-01-15T05:51:05.485Z,0
2017-01-15T05:52:05.548Z,0
2017-01-15T05:53:05.601Z,0
2017-01-15T05:54:05.656Z,0
2017-01-15T05:55:05.717Z,0
2017-01-15T05:56:05.778Z,0
2017-01-15T05:57:05.820Z,0
2017-01-15T05:58:05.895Z,0
2017-01-15T05:59:05.933Z,0
2017-01-15T06:00:06.410Z,0
2017-01-15T06:01:06.052Z,0
2017-01-15T06:02:06.113Z,0
2017-01-15T06:03:06.172Z,0
2017-01-15T06:04:06.226Z,0
2017-01-15T06:05:06.288Z,0
2017-01-15T06:06:06.336Z,0
2017-01-15T06:07:06.398Z,0
2017-01-15T06:08:06.444Z,0
2017-01-15T06:09:06.508Z,0
2017-01-15T06:10:06.564Z,0
2017-01-15T06:11:06.615Z,0
2017-01-15T06:12:06.668Z,0
2017-01-15T06:13:06.730Z,0
2017-01-15T06:14:06.784Z,0
2017-01-15T06:15:06.837Z,0
2017-01-15T06:16:07.109Z,0
2017-01-15T06:17:06.958Z,0
2017-01-15T06:18:07.026Z,0
2017-01-15T06:19:07.068Z,0
2017-01-15T06:20:07.505Z,0
2017-01-15T06:21:07.187Z,0
2017-01-15T06:22:07.242Z,0
2017-01-15T06:23:07.298Z,0
2017-01-15T06:24:07.347Z,0
2017-01-15T06:25:07.415Z,0
2017-01-15T06:26:07.480Z,0
2017-01-15T06:27:07.533Z,0
2017-01-15T06:28:07.581Z,0
2017-01-15T06:29:07.636Z,0
2017-01-15T06:30:07.685Z,0
2017-01-15T06:31:07.756Z,0
2017-01-15T06:32:07.807Z,0
2017-01-15T06:33:07.864Z,0
2017-01-15T06:34:07.913Z,0
2017-01-15T06:35:07.981Z,0
2017-01-15T06:36:08.038Z,0
2017-01-15T06:37:08.098Z,0
2017-01-15T06:38:08.137Z,0
2017-01-15T06:39:08.207Z,0
2017-01-15T06:40:08.454Z,0
2017-01-15T06:41:08.522Z,0
2017-01-15T06:42:08.381Z,0
2017-01-15T06:43:08.423Z,0
2017-01-15T06:44:08.492Z,0
2017-01-15T06:45:08.546Z,0
2017-01-15T06:46:08.600Z,0
2017-01-15T06:47:08.661Z,0
2017-01-15T06:48:08.716Z,0
2017-01-15T06:49:08.763Z,0
2017-01-15T06:50:08.824Z,0
2017-01-15T06:51:08.879Z,0
2017-01-15T06:52:08.939Z,0
2017-01-15T06:53:09.001Z,0
2017-01-15T06:54:09.045Z,0
2017-01-15T06:55:09.133Z,4
2017-01-15T06:56:09.170Z,4
2017-01-15T06:57:09.221Z,4
2017-01-15T06:58:09.275Z,4
2017-01-15T06:59:09.339Z,4
2017-01-15T07:00:09.384Z,4
2017-01-15T07:01:09.835Z,4
2017-01-15T07:02:09.898Z,4
2017-01-15T07:03:09.562Z,8
2017-01-15T07:04:09.611Z,4
2017-01-15T07:05:09.884Z,4
2017-01-15T07:06:09.718Z,4
2017-01-15T07:07:09.781Z,4
2017-01-15T07:08:09.843Z,8
2017-01-15T07:09:09.889Z,4
2017-01-15T07:10:09.951Z,8
2017-01-15T07:11:10.000Z,8
2017-01-15T07:12:10.060Z,8
2017-01-15T07:13:10.123Z,8
2017-01-15T07:14:10.163Z,8
2017-01-15T07:15:10.232Z,12
2017-01-15T07:16:10.280Z,12
2017-01-15T07:17:10.341Z,12
2017-01-15T07:18:10.396Z,16
2017-01-15T07:19:10.454Z,12
2017-01-15T07:20:10.507Z,12
2017-01-15T07:21:10.569Z,12
2017-01-15T07:22:10.627Z,16
2017-01-15T07:23:10.675Z,16
2017-01-15T07:24:10.727Z,16
2017-01-15T07:25:10.793Z,20
2017-01-15T07:26:10.857Z,20
2017-01-15T07:27:10.891Z,16
2017-01-15T07:28:10.955Z,20
2017-01-15T07:29:11.222Z,24
2017-01-15T07:30:11.078Z,20
2017-01-15T07:31:11.349Z,24
2017-01-15T07:32:11.175Z,24
2017-01-15T07:33:11.235Z,24
2017-01-15T07:34:11.285Z,24
2017-01-15T07:35:11.351Z,24
2017-01-15T07:36:11.407Z,28
2017-01-15T07:37:11.464Z,24
2017-01-15T07:38:11.520Z,24
2017-01-15T07:39:11.583Z,24
2017-01-15T07:40:11.630Z,24
2017-01-15T07:41:11.700Z,28
2017-01-15T07:42:11.738Z,28
2017-01-15T07:43:11.805Z,28
2017-01-15T07:44:11.856Z,32
2017-01-15T07:45:11.921Z,28
2017-01-15T07:46:11.964Z,32
2017-01-15T07:47:12.021Z,36
2017-01-15T07:48:12.082Z,32
2017-01-15T07:49:12.127Z,32
2017-01-15T07:50:12.183Z,36
2017-01-15T07:51:12.245Z,40
2017-01-15T07:52:12.302Z,40
2017-01-15T07:53:12.356Z,40
2017-01-15T07:54:12.613Z,44
2017-01-15T07:55:12.473Z,40
2017-01-15T07:56:12.532Z,44
2017-01-15T07:57:12.580Z,40
2017-01-15T07:58:12.641Z,44
2017-01-15T07:59:12.699Z,48
2017-01-15T08:00:12.741Z,48
2017-01-15T08:01:12.805Z,48
2017-01-15T08:02:12.856Z,48
2017-01-15T08:03:12.908Z,52
2017-01-15T08:04:12.980Z,60
2017-01-15T08:05:13.036Z,60
2017-01-15T08:06:13.080Z,68
2017-01-15T08:07:13.145Z,64
2017-01-15T08:08:13.197Z,64
2017-01-15T08:09:13.256Z,60
2017-01-15T08:10:13.308Z,64
2017-01-15T08:11:13.363Z,68
2017-01-15T08:12:13.422Z,80
2017-01-15T08:13:13.472Z,76
2017-01-15T08:14:13.540Z,72
2017-01-15T08:15:13.595Z,64
2017-01-15T08:16:13.632Z,64
2017-01-15T08:17:13.697Z,68
2017-01-15T08:18:13.968Z,84
2017-01-15T08:19:13.814Z,100
2017-01-15T08:20:13.877Z,96
2017-01-15T08:21:13.926Z,84
2017-01-15T08:22:13.982Z,76
2017-01-15T08:23:14.036Z,76
2017-01-15T08:24:14.087Z,80
2017-01-15T08:25:14.147Z,80
2017-01-15T08:26:14.200Z,84
2017-01-15T08:27:14.261Z,88
2017-01-15T08:28:14.318Z,104
2017-01-15T08:29:14.382Z,112
2017-01-15T08:30:14.427Z,108
2017-01-15T08:31:14.484Z,108
2017-01-15T08:32:14.546Z,116
2017-01-15T08:33:14.600Z,128
2017-01-15T08:34:14.652Z,128
2017-01-15T08:35:14.701Z,132
2017-01-15T08:36:14.767Z,168
2017-01-15T08:37:14.834Z,144
2017-01-15T08:38:14.877Z,156
2017-01-15T08:39:14.926Z,144
2017-01-15T08:40:14.983Z,144
2017-01-15T08:41:15.047Z,128
2017-01-15T08:42:15.098Z,116
2017-01-15T08:43:15.163Z,108
2017-01-15T08:44:15.215Z,104
2017-01-15T08:45:15.276Z,100
2017-01-15T08:46:15.330Z,104
2017-01-15T08:47:15.391Z,104
2017-01-15T08:48:15.437Z,112
2017-01-15T08:49:15.494Z,116
2017-01-15T08:50:15.555Z,120
2017-01-15T08:51:15.623Z,128
2017-01-15T08:52:15.678Z,148
2017-01-15T08:53:15.716Z,176
2017-01-15T08:54:15.775Z,220
2017-01-15T08:55:15.839Z,312
2017-01-15T08:56:15.897Z,388
2017-01-15T08:57:15.957Z,364
2017-01-15T08:58:16.016Z,216
2017-01-15T08:59:16.070Z,220
2017-01-15T09:00:16.124Z,192
2017-01-15T09:01:16.179Z,168
2017-01-15T09:02:16.235Z,164
2017-01-15T09:03:16.283Z,160
2017-01-15T09:04:16.347Z,152
2017-01-15T09:05:16.401Z,152
2017-01-15T09:06:16.452Z,148
2017-01-15T09:07:16.515Z,148
2017-01-15T09:08:16.586Z,136
2017-01-15T09:09:16.632Z,128
2017-01-15T09:10:16.678Z,128
2017-01-15T09:11:16.739Z,136
2017-01-15T09:12:17.179Z,148
2017-01-15T09:13:16.845Z,156
2017-01-15T09:14:16.918Z,164
2017-01-15T09:15:16.977Z,160
2017-01-15T09:16:17.031Z,164
2017-01-15T09:17:17.078Z,176
2017-01-15T09:18:17.136Z,188
2017-01-15T09:19:17.199Z,180
2017-01-15T09:20:17.258Z,196
2017-01-15T09:21:17.314Z,208
2017-01-15T09:22:17.365Z,232
2017-01-15T09:23:17.415Z,280
2017-01-15T09:24:17.474Z,404
2017-01-15T09:25:17.535Z,320
2017-01-15T09:26:17.583Z,276
2017-01-15T09:27:17.656Z,248
2017-01-15T09:28:17.708Z,244
2017-01-15T09:29:17.752Z,240
2017-01-15T09:30:17.815Z,224
2017-01-15T09:31:17.866Z,216
2017-01-15T09:32:17.924Z,204
2017-01-15T09:33:17.982Z,192
2017-01-15T09:34:18.046Z,196
2017-01-15T09:35:18.111Z,192
2017-01-15T09:36:18.263Z,184
2017-01-15T09:37:18.242Z,192
2017-01-15T09:38:18.265Z,200
2017-01-15T09:39:18.335Z,204
2017-01-15T09:40:18.391Z,200
2017-01-15T09:41:18.446Z,192
2017-01-15T09:42:18.502Z,180
2017-01-15T09:43:18.565Z,172
2017-01-15T09:44:18.620Z,172
2017-01-15T09:45:18.663Z,172
2017-01-15T09:46:18.722Z,180
2017-01-15T09:47:18.779Z,180
2017-01-15T09:48:18.829Z,188
2017-01-15T09:49:18.905Z,200
2017-01-15T09:50:18.944Z,228
2017-01-15T09:51:19.014Z,248
2017-01-15T09:52:19.066Z,268
2017-01-15T09:53:19.120Z,296
2017-01-15T09:54:19.179Z,252
2017-01-15T09:55:19.247Z,216
2017-01-15T09:56:19.300Z,196
2017-01-15T09:57:19.351Z,200
2017-01-15T09:58:19.403Z,200
2017-01-15T09:59:19.463Z,188
2017-01-15T10:00:19.525Z,196
2017-01-15T10:01:19.572Z,208
2017-01-15T10:02:19.638Z,220
2017-01-15T10:03:19.687Z,244
2017-01-15T10:04:19.751Z,264
2017-01-15T10:05:19.811Z,268
2017-01-15T10:06:19.869Z,256
2017-01-15T10:07:19.921Z,248
2017-01-15T10:08:19.982Z,244
2017-01-15T10:09:20.028Z,236
2017-01-15T10:10:20.097Z,232
2017-01-15T10:11:20.143Z,244
2017-01-15T10:12:20.211Z,240
2017-01-15T10:13:20.267Z,232
2017-01-15T10:14:20.318Z,284
2017-01-15T10:15:20.374Z,308
2017-01-15T10:16:20.423Z,292
2017-01-15T10:17:20.489Z,280
2017-01-15T10:18:20.540Z,276
2017-01-15T10:19:20.605Z,264
2017-01-15T10:20:20.658Z,268
2017-01-15T10:21:20.714Z,300
2017-01-15T10:22:20.779Z,300
2017-01-15T10:23:20.824Z,284
2017-01-15T10:24:20.892Z,272
2017-01-15T10:25:20.936Z,272
2017-01-15T10:26:20.991Z,268
2017-01-15T10:27:21.052Z,284
2017-01-15T10:28:21.115Z,284
2017-01-15T10:29:21.165Z,272
2017-01-15T10:30:21.231Z,264
2017-01-15T10:31:21.273Z,268
2017-01-15T10:32:21.336Z,292
2017-01-15T10:33:21.393Z,316
2017-01-15T10:34:21.454Z,312
2017-01-15T10:35:21.510Z,288
2017-01-15T10:36:21.558Z,268
2017-01-15T10:37:21.624Z,252
2017-01-15T10:38:21.673Z,244
2017-01-15T10:39:21.731Z,244
2017-01-15T10:40:21.798Z,252
2017-01-15T10:41:21.870Z,264
2017-01-15T10:42:21.906Z,252
2017-01-15T10:43:21.965Z,248
2017-01-15T10:44:22.012Z,260
2017-01-15T10:45:22.076Z,260
2017-01-15T10:46:22.135Z,244
2017-01-15T10:47:22.184Z,228
2017-01-15T10:48:22.244Z,216
2017-01-15T10:49:22.299Z,204
2017-01-15T10:50:22.358Z,192
2017-01-15T10:51:22.413Z,180
2017-01-15T10:52:22.476Z,184
2017-01-15T10:53:22.519Z,204
2017-01-15T10:54:22.577Z,220
2017-01-15T10:55:22.635Z,232
2017-01-15T10:56:22.699Z,228
2017-01-15T10:57:22.759Z,228
2017-01-15T10:58:22.813Z,228
2017-01-15T10:59:22.862Z,216
2017-01-15T11:00:22.925Z,220
2017-01-15T11:01:22.977Z,240
2017-01-15T11:02:23.032Z,236
2017-01-15T11:03:23.094Z,244
2017-01-15T11:04:23.142Z,248
2017-01-15T11:05:23.214Z,228
2017-01-15T11:06:23.261Z,220
2017-01-15T11:07:23.322Z,232
2017-01-15T11:08:23.379Z,236
2017-01-15T11:09:23.434Z,228
2017-01-15T11:10:23.485Z,216
2017-01-15T11:11:23.547Z,212
2017-01-15T11:12:23.610Z,228
2017-01-15T11:13:23.653Z,228
2017-01-15T11:14:23.720Z,240
2017-01-15T11:15:23.769Z,236
2017-01-15T11:16:23.833Z,232
2017-01-15T11:17:23.888Z,236
2017-01-15T11:18:23.949Z,240
2017-01-15T11:19:24.002Z,264
2017-01-15T11:20:24.064Z,260
2017-01-15T11:21:24.116Z,224
2017-01-15T11:22:24.176Z,236
2017-01-15T11:23:24.232Z,236
2017-01-15T11:24:24.278Z,224
2017-01-15T11:25:24.342Z,236
2017-01-15T11:26:24.408Z,236
2017-01-15T11:27:24.466Z,256
2017-01-15T11:28:24.521Z,244
2017-01-15T11:29:24.601Z,196
2017-01-15T11:30:24.624Z,192
2017-01-15T11:31:24.700Z,208
2017-01-15T11:32:24.741Z,216
2017-01-15T11:33:24.809Z,224
2017-01-15T11:34:24.848Z,220
2017-01-15T11:35:24.913Z,212
2017-01-15T11:36:24.967Z,204
2017-01-15T11:37:25.035Z,200
2017-01-15T11:38:25.088Z,200
2017-01-15T11:39:25.141Z,212
2017-01-15T11:40:25.205Z,208
2017-01-15T11:41:25.248Z,200
2017-01-15T11:42:25.319Z,196
2017-01-15T11:43:25.407Z,188
2017-01-15T11:44:25.427Z,208
2017-01-15T11:45:25.486Z,228
2017-01-15T11:46:25.554Z,240
2017-01-15T11:47:25.599Z,216
2017-01-15T11:48:25.651Z,196
2017-01-15T11:49:25.717Z,200
2017-01-15T11:50:25.787Z,204
2017-01-15T11:51:25.821Z,200
2017-01-15T11:52:25.888Z,200
2017-01-15T11:53:25.937Z,196
2017-01-15T11:54:25.996Z,216
2017-01-15T11:55:26.079Z,216
2017-01-15T11:56:26.107Z,220
2017-01-15T11:57:26.171Z,224
2017-01-15T11:58:26.213Z,232
2017-01-15T11:59:26.289Z,260
2017-01-15T12:00:26.332Z,224
2017-01-15T12:01:26.397Z,208
2017-01-15T12:02:26.449Z,208
2017-01-15T12:03:26.505Z,220
2017-01-15T12:04:26.567Z,220
2017-01-15T12:05:26.627Z,200
2017-01-15T12:06:26.686Z,184
2017-01-15T12:07:26.736Z,184
2017-01-15T12:08:26.787Z,212
2017-01-15T12:09:26.850Z,228
2017-01-15T12:10:26.903Z,228
2017-01-15T12:11:26.966Z,220
2017-01-15T12:12:27.020Z,192
2017-01-15T12:13:27.081Z,188
2017-01-15T12:14:27.155Z,184
2017-01-15T12:15:27.189Z,188
2017-01-15T12:16:27.256Z,188
2017-01-15T12:17:27.307Z,196
2017-01-15T12:18:27.367Z,184
2017-01-15T12:19:27.415Z,208
2017-01-15T12:20:27.469Z,248
2017-01-15T12:21:27.532Z,244
2017-01-15T12:22:27.596Z,228
2017-01-15T12:23:27.645Z,216
2017-01-15T12:24:27.701Z,184
2017-01-15T12:25:27.759Z,180
2017-01-15T12:26:27.821Z,228
2017-01-15T12:27:27.870Z,488
2017-01-15T12:28:27.931Z,364
2017-01-15T12:29:27.990Z,240
2017-01-15T12:30:28.073Z,248
2017-01-15T12:31:28.095Z,244
2017-01-15T12:32:28.153Z,228
2017-01-15T12:33:28.220Z,216
2017-01-15T12:34:28.271Z,204
2017-01-15T12:35:28.323Z,240
2017-01-15T12:36:28.378Z,264
2017-01-15T12:37:28.436Z,252
2017-01-15T12:38:28.496Z,272
2017-01-15T12:39:28.555Z,280
2017-01-15T12:40:28.614Z,280
2017-01-15T12:41:28.671Z,240
2017-01-15T12:42:28.720Z,212
2017-01-15T12:43:28.782Z,196
2017-01-15T12:44:28.840Z,188
2017-01-15T12:45:28.913Z,188
2017-01-15T12:46:28.949Z,188
2017-01-15T12:47:29.001Z,200
2017-01-15T12:48:29.061Z,212
2017-01-15T12:49:29.109Z,220
2017-01-15T12:50:29.185Z,200
2017-01-15T12:51:29.224Z,180
2017-01-15T12:52:29.297Z,168
2017-01-15T12:53:29.350Z,148
2017-01-15T12:54:29.413Z,136
2017-01-15T12:55:29.462Z,172
2017-01-15T12:56:29.529Z,188
2017-01-15T12:57:29.583Z,184
2017-01-15T12:58:29.626Z,212
2017-01-15T12:59:29.686Z,208
2017-01-15T13:00:29.749Z,172
2017-01-15T13:01:29.802Z,176
2017-01-15T13:02:29.861Z,180
2017-01-15T13:03:29.925Z,160
2017-01-15T13:04:29.977Z,172
2017-01-15T13:05:30.034Z,188
2017-01-15T13:06:30.094Z,196
2017-01-15T13:07:30.150Z,200
2017-01-15T13:08:30.210Z,204
2017-01-15T13:09:30.267Z,172
2017-01-15T13:10:30.310Z,128
2017-01-15T13:11:30.368Z,156
2017-01-15T13:12:30.430Z,176
2017-01-15T13:13:30.494Z,180
2017-01-15T13:14:30.542Z,180
2017-01-15T13:15:30.602Z,192
2017-01-15T13:16:30.660Z,220
2017-01-15T13:17:30.709Z,244
2017-01-15T13:18:30.770Z,240
2017-01-15T13:19:30.837Z,224
2017-01-15T13:20:30.886Z,228
2017-01-15T13:21:30.947Z,224
2017-01-15T13:22:30.997Z,220
2017-01-15T13:23:31.068Z,208
2017-01-15T13:24:31.111Z,204
2017-01-15T13:25:31.170Z,212
2017-01-15T13:26:31.219Z,208
2017-01-15T13:27:31.288Z,192
2017-01-15T13:28:31.338Z,192
2017-01-15T13:29:31.395Z,208
2017-01-15T13:30:31.459Z,188
2017-01-15T13:31:31.503Z,168
2017-01-15T13:32:31.572Z,144
2017-01-15T13:33:31.621Z,136
2017-01-15T13:34:31.671Z,156
2017-01-15T13:35:31.742Z,168
2017-01-15T13:36:31.796Z,176
2017-01-15T13:37:31.859Z,168
2017-01-15T13:38:31.908Z,160
2017-01-15T13:39:31.970Z,136
2017-01-15T13:40:32.019Z,132
2017-01-15T13:41:32.073Z,140
2017-01-15T13:42:32.128Z,148
2017-01-15T13:43:32.199Z,156
2017-01-15T13:44:32.254Z,152
2017-01-15T13:45:32.314Z,144
2017-01-15T13:46:32.359Z,136
2017-01-15T13:47:32.415Z,132
2017-01-15T13:48:32.470Z,128
2017-01-15T13:49:32.537Z,128
2017-01-15T13:50:32.593Z,120
2017-01-15T13:51:32.647Z,116
2017-01-15T13:52:32.707Z,108
2017-01-15T13:53:32.754Z,108
2017-01-15T13:54:32.821Z,108
2017-01-15T13:55:32.866Z,104
2017-01-15T13:56:32.940Z,104
2017-01-15T13:57:32.993Z,100
2017-01-15T13:58:33.051Z,96
2017-01-15T13:59:33.102Z,100
2017-01-15T14:00:33.159Z,108
2017-01-15T14:01:33.227Z,112
2017-01-15T14:02:33.266Z,116
2017-01-15T14:03:33.327Z,108
2017-01-15T14:04:33.388Z,104
2017-01-15T14:05:33.446Z,96
2017-01-15T14:06:33.508Z,92
2017-01-15T14:07:33.555Z,92
2017-01-15T14:08:33.616Z,76
2017-01-15T14:09:33.677Z,64
2017-01-15T14:10:33.728Z,60
2017-01-15T14:11:33.893Z,56
2017-01-15T14:12:33.840Z,64
2017-01-15T14:13:33.903Z,72
2017-01-15T14:14:33.952Z,84
2017-01-15T14:15:34.018Z,84
2017-01-15T14:16:34.066Z,92
2017-01-15T14:17:34.133Z,96
2017-01-15T14:18:34.192Z,92
2017-01-15T14:19:34.248Z,96
2017-01-15T14:20:34.303Z,104